Terminal Aerodrome Forecast
Issued by NWS Des Moines, IA

Home | Current Version | Previous Version | Text Only | Print | Product List | Glossary On
Versions: 1 2 3 4 5 6 7 8 9 10 11 12 13 14 15
000
FTUS43 KDMX 241127
TAFDSM
TAF
KDSM 241127Z 2412/2512 36010KT P6SM SCT008 BKN012 OVC020
      TEMPO 2412/2414 5SM -SHRA BKN008
     FM241700 36010KT P6SM SCT025 BKN040
     FM250100 VRB04KT P6SM SCT070 BKN150=

USA.gov is the U.S. government's official web portal to all federal, state and local government web resources and services.